sensor_id;sensor_type;location;lat;lon;timestamp;temperature;humidity
16271;DHT22;8243;49.048;8.396;2023-02-11T00:01:25;-0.30;99.90
16271;DHT22;8243;49.048;8.396;2023-02-11T00:03:51;-0.30;99.90
16271;DHT22;8243;49.048;8.396;2023-02-11T00:06:17;-0.30;99.90
16271;DHT22;8243;49.048;8.396;2023-02-11T00:08:43;-0.30;99.90
16271;DHT22;8243;49.048;8.396;2023-02-11T00:11:15;-0.30;99.90
16271;DHT22;8243;49.048;8.396;2023-02-11T00:13:42;-0.50;99.90
16271;DHT22;8243;49.048;8.396;2023-02-11T00:16:14;-0.30;99.90
16271;DHT22;8243;49.048;8.396;2023-02-11T00:18:40;-0.40;99.90
16271;DHT22;8243;49.048;8.396;2023-02-11T00:21:17;-0.50;99.90
16271;DHT22;8243;49.048;8.396;2023-02-11T00:23:44;-0.30;99.90
16271;DHT22;8243;49.048;8.396;2023-02-11T00:26:15;-0.50;99.90
16271;DHT22;8243;49.048;8.396;2023-02-11T00:28:40;-0.40;99.90
16271;DHT22;8243;49.048;8.396;2023-02-11T00:31:06;-0.30;99.90
16271;DHT22;8243;49.048;8.396;2023-02-11T00:33:32;-0.40;99.90
16271;DHT22;8243;49.048;8.396;2023-02-11T00:35:57;-0.50;99.90
16271;DHT22;8243;49.048;8.396;2023-02-11T00:38:23;-0.30;99.90
16271;DHT22;8243;49.048;8.396;2023-02-11T00:40:48;-0.30;99.90
16271;DHT22;8243;49.048;8.396;2023-02-11T00:43:14;-0.20;99.90
16271;DHT22;8243;49.048;8.396;2023-02-11T00:45:39;-0.20;99.90
16271;DHT22;8243;49.048;8.396;2023-02-11T00:48:05;-0.10;99.90
16271;DHT22;8243;49.048;8.396;2023-02-11T00:50:30;-0.20;99.90
16271;DHT22;8243;49.048;8.396;2023-02-11T00:52:56;-0.10;99.90
16271;DHT22;8243;49.048;8.396;2023-02-11T00:55:21;-0.10;99.90
16271;DHT22;8243;49.048;8.396;2023-02-11T00:57:47;-0.30;99.90
16271;DHT22;8243;49.048;8.396;2023-02-11T01:00:13;0.10;99.90
16271;DHT22;8243;49.048;8.396;2023-02-11T01:02:39;0.00;99.90
16271;DHT22;8243;49.048;8.396;2023-02-11T01:05:05;0.10;99.90
16271;DHT22;8243;49.048;8.396;2023-02-11T01:07:31;-0.10;99.90
16271;DHT22;8243;49.048;8.396;2023-02-11T01:09:56;0.00;99.90
16271;DHT22;8243;49.048;8.396;2023-02-11T01:12:22;0.00;99.90
16271;DHT22;8243;49.048;8.396;2023-02-11T01:14:47;0.00;99.90
16271;DHT22;8243;49.048;8.396;2023-02-11T01:17:13;0.20;99.90
16271;DHT22;8243;49.048;8.396;2023-02-11T01:19:39;0.20;99.90
16271;DHT22;8243;49.048;8.396;2023-02-11T01:22:05;0.30;99.90
16271;DHT22;8243;49.048;8.396;2023-02-11T01:24:31;0.10;99.90
16271;DHT22;8243;49.048;8.396;2023-02-11T01:26:56;0.30;99.90
16271;DHT22;8243;49.048;8.396;2023-02-11T01:29:22;0.40;99.90
16271;DHT22;8243;49.048;8.396;2023-02-11T01:31:47;0.40;99.90
16271;DHT22;8243;49.048;8.396;2023-02-11T01:34:14;0.50;99.90
16271;DHT22;8243;49.048;8.396;2023-02-11T01:36:40;0.50;99.90
16271;DHT22;8243;49.048;8.396;2023-02-11T01:39:05;0.60;99.90
16271;DHT22;8243;49.048;8.396;2023-02-11T01:41:33;0.50;99.90
16271;DHT22;8243;49.048;8.396;2023-02-11T01:44:26;0.60;99.90
16271;DHT22;8243;49.048;8.396;2023-02-11T01:46:52;0.60;99.90
16271;DHT22;8243;49.048;8.396;2023-02-11T01:49:22;0.70;99.90
16271;DHT22;8243;49.048;8.396;2023-02-11T01:52:00;0.60;99.90
16271;DHT22;8243;49.048;8.396;2023-02-11T01:54:30;0.70;99.90
16271;DHT22;8243;49.048;8.396;2023-02-11T01:57:17;0.80;99.90
16271;DHT22;8243;49.048;8.396;2023-02-11T02:02:39;0.70;99.90
16271;DHT22;8243;49.048;8.396;2023-02-11T02:07:46;0.70;99.90
16271;DHT22;8243;49.048;8.396;2023-02-11T02:10:18;0.90;99.90
16271;DHT22;8243;49.048;8.396;2023-02-11T02:12:45;0.80;99.90
16271;DHT22;8243;49.048;8.396;2023-02-11T02:15:20;1.00;99.90
16271;DHT22;8243;49.048;8.396;2023-02-11T02:29:36;0.80;99.90
16271;DHT22;8243;49.048;8.396;2023-02-11T02:32:25;1.00;99.90
16271;DHT22;8243;49.048;8.396;2023-02-11T02:35:12;0.90;99.90
16271;DHT22;8243;49.048;8.396;2023-02-11T02:38:36;1.20;99.90
16271;DHT22;8243;49.048;8.396;2023-02-11T02:40:52;0.90;99.90
16271;DHT22;8243;49.048;8.396;2023-02-11T02:43:20;1.20;99.90
16271;DHT22;8243;49.048;8.396;2023-02-11T02:45:46;1.10;99.90
16271;DHT22;8243;49.048;8.396;2023-02-11T02:48:24;1.20;99.90
16271;DHT22;8243;49.048;8.396;2023-02-11T02:50:57;0.90;99.90
16271;DHT22;8243;49.048;8.396;2023-02-11T03:02:25;1.00;99.90
16271;DHT22;8243;49.048;8.396;2023-02-11T03:05:09;1.00;99.90
16271;DHT22;8243;49.048;8.396;2023-02-11T03:10:18;1.00;99.90
16271;DHT22;8243;49.048;8.396;2023-02-11T03:12:46;0.70;99.90
16271;DHT22;8243;49.048;8.396;2023-02-11T03:15:13;1.00;99.90
16271;DHT22;8243;49.048;8.396;2023-02-11T03:17:42;0.90;99.90
16271;DHT22;8243;49.048;8.396;2023-02-11T03:20:11;1.00;99.90
16271;DHT22;8243;49.048;8.396;2023-02-11T03:23:01;1.00;99.90
16271;DHT22;8243;49.048;8.396;2023-02-11T03:25:34;1.10;99.90
16271;DHT22;8243;49.048;8.396;2023-02-11T03:28:16;1.00;99.90
16271;DHT22;8243;49.048;8.396;2023-02-11T03:30:54;1.00;99.90
16271;DHT22;8243;49.048;8.396;2023-02-11T03:33:32;1.00;99.90
16271;DHT22;8243;49.048;8.396;2023-02-11T03:36:04;1.10;99.90
16271;DHT22;8243;49.048;8.396;2023-02-11T03:38:35;1.00;99.90
16271;DHT22;8243;49.048;8.396;2023-02-11T03:41:05;1.10;99.90
16271;DHT22;8243;49.048;8.396;2023-02-11T03:43:37;1.10;99.90
16271;DHT22;8243;49.048;8.396;2023-02-11T03:46:05;1.30;99.90
16271;DHT22;8243;49.048;8.396;2023-02-11T03:48:35;1.20;99.90
16271;DHT22;8243;49.048;8.396;2023-02-11T03:51:05;1.20;99.90
16271;DHT22;8243;49.048;8.396;2023-02-11T03:53:31;1.10;99.90
16271;DHT22;8243;49.048;8.396;2023-02-11T03:55:59;1.30;99.90
16271;DHT22;8243;49.048;8.396;2023-02-11T03:58:27;1.20;99.90
16271;DHT22;8243;49.048;8.396;2023-02-11T04:00:52;1.20;99.90
16271;DHT22;8243;49.048;8.396;2023-02-11T04:03:18;1.10;99.90
16271;DHT22;8243;49.048;8.396;2023-02-11T04:05:43;1.40;99.90
16271;DHT22;8243;49.048;8.396;2023-02-11T04:08:09;1.30;99.90
16271;DHT22;8243;49.048;8.396;2023-02-11T04:10:35;1.40;99.90
16271;DHT22;8243;49.048;8.396;2023-02-11T04:13:00;1.10;99.90
16271;DHT22;8243;49.048;8.396;2023-02-11T04:15:26;1.20;99.90
16271;DHT22;8243;49.048;8.396;2023-02-11T04:17:51;1.20;99.90
16271;DHT22;8243;49.048;8.396;2023-02-11T04:20:17;1.20;99.90
16271;DHT22;8243;49.048;8.396;2023-02-11T04:22:43;1.30;99.90
16271;DHT22;8243;49.048;8.396;2023-02-11T04:25:09;1.50;99.90
16271;DHT22;8243;49.048;8.396;2023-02-11T04:27:35;1.50;99.90
16271;DHT22;8243;49.048;8.396;2023-02-11T04:30:01;1.30;99.90
16271;DHT22;8243;49.048;8.396;2023-02-11T04:32:26;1.40;99.90
16271;DHT22;8243;49.048;8.396;2023-02-11T04:34:52;1.60;99.90
16271;DHT22;8243;49.048;8.396;2023-02-11T04:37:19;1.50;99.90
16271;DHT22;8243;49.048;8.396;2023-02-11T04:39:44;1.60;99.90
16271;DHT22;8243;49.048;8.396;2023-02-11T04:42:10;1.50;99.40
16271;DHT22;8243;49.048;8.396;2023-02-11T04:44:35;1.60;99.10
16271;DHT22;8243;49.048;8.396;2023-02-11T04:47:01;1.40;98.80
16271;DHT22;8243;49.048;8.396;2023-02-11T04:49:26;1.30;98.70
16271;DHT22;8243;49.048;8.396;2023-02-11T04:51:52;1.50;98.70
16271;DHT22;8243;49.048;8.396;2023-02-11T04:54:17;1.40;98.50
16271;DHT22;8243;49.048;8.396;2023-02-11T04:56:44;1.40;98.70
16271;DHT22;8243;49.048;8.396;2023-02-11T04:59:09;1.40;98.90
16271;DHT22;8243;49.048;8.396;2023-02-11T05:01:36;1.40;98.60
16271;DHT22;8243;49.048;8.396;2023-02-11T05:04:01;1.50;98.90
16271;DHT22;8243;49.048;8.396;2023-02-11T05:06:27;1.50;98.50
16271;DHT22;8243;49.048;8.396;2023-02-11T05:08:52;1.50;98.60
16271;DHT22;8243;49.048;8.396;2023-02-11T05:11:21;1.40;98.60
16271;DHT22;8243;49.048;8.396;2023-02-11T05:13:47;1.50;98.50
16271;DHT22;8243;49.048;8.396;2023-02-11T05:16:14;1.40;98.10
16271;DHT22;8243;49.048;8.396;2023-02-11T05:18:41;1.50;97.80
16271;DHT22;8243;49.048;8.396;2023-02-11T05:21:14;1.50;97.40
16271;DHT22;8243;49.048;8.396;2023-02-11T05:23:40;1.60;97.50
16271;DHT22;8243;49.048;8.396;2023-02-11T05:26:06;1.40;97.40
16271;DHT22;8243;49.048;8.396;2023-02-11T05:28:32;1.60;97.70
16271;DHT22;8243;49.048;8.396;2023-02-11T05:30:58;1.40;97.60
16271;DHT22;8243;49.048;8.396;2023-02-11T05:33:24;1.30;97.80
16271;DHT22;8243;49.048;8.396;2023-02-11T05:35:50;1.50;98.20
16271;DHT22;8243;49.048;8.396;2023-02-11T05:38:15;1.60;98.30
16271;DHT22;8243;49.048;8.396;2023-02-11T05:40:41;1.60;98.00
16271;DHT22;8243;49.048;8.396;2023-02-11T05:43:06;1.40;97.50
16271;DHT22;8243;49.048;8.396;2023-02-11T05:45:32;1.70;97.70
16271;DHT22;8243;49.048;8.396;2023-02-11T05:47:58;1.50;97.10
16271;DHT22;8243;49.048;8.396;2023-02-11T05:50:24;1.50;97.20
16271;DHT22;8243;49.048;8.396;2023-02-11T05:52:49;1.40;97.10
16271;DHT22;8243;49.048;8.396;2023-02-11T05:55:15;1.40;97.10
16271;DHT22;8243;49.048;8.396;2023-02-11T05:57:40;1.30;97.40
16271;DHT22;8243;49.048;8.396;2023-02-11T06:00:07;1.00;98.00
16271;DHT22;8243;49.048;8.396;2023-02-11T06:02:32;1.30;98.50
16271;DHT22;8243;49.048;8.396;2023-02-11T06:04:58;0.90;99.20
16271;DHT22;8243;49.048;8.396;2023-02-11T06:07:24;0.90;99.90
16271;DHT22;8243;49.048;8.396;2023-02-11T06:09:50;0.80;99.90
16271;DHT22;8243;49.048;8.396;2023-02-11T06:12:15;0.80;99.90
16271;DHT22;8243;49.048;8.396;2023-02-11T06:14:41;0.70;99.90
16271;DHT22;8243;49.048;8.396;2023-02-11T06:17:06;0.70;99.90
16271;DHT22;8243;49.048;8.396;2023-02-11T06:19:32;0.90;99.90
16271;DHT22;8243;49.048;8.396;2023-02-11T06:21:58;0.50;99.90
16271;DHT22;8243;49.048;8.396;2023-02-11T06:24:24;0.60;99.90
16271;DHT22;8243;49.048;8.396;2023-02-11T06:26:49;0.80;99.90
16271;DHT22;8243;49.048;8.396;2023-02-11T06:29:15;0.80;99.90
16271;DHT22;8243;49.048;8.396;2023-02-11T06:31:41;0.70;99.90
16271;DHT22;8243;49.048;8.396;2023-02-11T06:34:07;0.40;99.90
16271;DHT22;8243;49.048;8.396;2023-02-11T06:36:33;0.70;99.90
16271;DHT22;8243;49.048;8.396;2023-02-11T06:38:59;0.70;99.90
16271;DHT22;8243;49.048;8.396;2023-02-11T06:41:25;0.70;99.90
16271;DHT22;8243;49.048;8.396;2023-02-11T06:43:51;0.70;99.90
16271;DHT22;8243;49.048;8.396;2023-02-11T06:46:17;0.80;99.90
16271;DHT22;8243;49.048;8.396;2023-02-11T06:48:43;0.90;99.90
16271;DHT22;8243;49.048;8.396;2023-02-11T06:51:10;0.90;99.90
16271;DHT22;8243;49.048;8.396;2023-02-11T06:53:38;1.00;99.90
16271;DHT22;8243;49.048;8.396;2023-02-11T06:56:06;1.00;99.90
16271;DHT22;8243;49.048;8.396;2023-02-11T06:58:32;1.10;99.90
16271;DHT22;8243;49.048;8.396;2023-02-11T07:00:58;1.10;99.90
16271;DHT22;8243;49.048;8.396;2023-02-11T07:03:24;1.00;99.90
16271;DHT22;8243;49.048;8.396;2023-02-11T07:05:50;1.00;99.90
16271;DHT22;8243;49.048;8.396;2023-02-11T07:08:15;1.30;99.90
16271;DHT22;8243;49.048;8.396;2023-02-11T07:10:41;1.00;99.90
16271;DHT22;8243;49.048;8.396;2023-02-11T07:13:07;1.00;99.90
16271;DHT22;8243;49.048;8.396;2023-02-11T07:15:32;1.30;99.90
16271;DHT22;8243;49.048;8.396;2023-02-11T07:17:58;1.40;99.90
16271;DHT22;8243;49.048;8.396;2023-02-11T07:20:24;1.20;99.90
16271;DHT22;8243;49.048;8.396;2023-02-11T07:22:50;1.30;99.90
16271;DHT22;8243;49.048;8.396;2023-02-11T07:25:15;1.40;99.90
16271;DHT22;8243;49.048;8.396;2023-02-11T07:27:41;1.30;99.90
16271;DHT22;8243;49.048;8.396;2023-02-11T07:30:07;1.60;99.90
16271;DHT22;8243;49.048;8.396;2023-02-11T07:32:33;1.60;99.90
16271;DHT22;8243;49.048;8.396;2023-02-11T07:34:58;1.60;99.90
16271;DHT22;8243;49.048;8.396;2023-02-11T07:37:24;1.70;99.90
16271;DHT22;8243;49.048;8.396;2023-02-11T07:39:50;1.90;99.90
16271;DHT22;8243;49.048;8.396;2023-02-11T07:42:15;1.70;99.90
16271;DHT22;8243;49.048;8.396;2023-02-11T07:44:40;1.80;99.90
16271;DHT22;8243;49.048;8.396;2023-02-11T07:47:06;1.80;99.90
16271;DHT22;8243;49.048;8.396;2023-02-11T07:49:32;1.70;99.90
16271;DHT22;8243;49.048;8.396;2023-02-11T07:51:57;1.80;99.90
16271;DHT22;8243;49.048;8.396;2023-02-11T07:54:23;1.80;99.90
16271;DHT22;8243;49.048;8.396;2023-02-11T07:56:48;1.70;99.90
16271;DHT22;8243;49.048;8.396;2023-02-11T07:59:14;1.90;99.90
16271;DHT22;8243;49.048;8.396;2023-02-11T08:01:39;1.70;99.90
16271;DHT22;8243;49.048;8.396;2023-02-11T08:04:05;1.70;99.90
16271;DHT22;8243;49.048;8.396;2023-02-11T08:06:32;1.90;99.90
16271;DHT22;8243;49.048;8.396;2023-02-11T08:09:03;1.90;99.90
16271;DHT22;8243;49.048;8.396;2023-02-11T08:11:29;2.00;99.90
16271;DHT22;8243;49.048;8.396;2023-02-11T08:13:55;1.90;99.50
16271;DHT22;8243;49.048;8.396;2023-02-11T08:16:25;2.20;97.80
16271;DHT22;8243;49.048;8.396;2023-02-11T08:18:52;1.90;97.40
16271;DHT22;8243;49.048;8.396;2023-02-11T08:21:19;2.20;96.70
16271;DHT22;8243;49.048;8.396;2023-02-11T08:23:45;2.10;96.20
16271;DHT22;8243;49.048;8.396;2023-02-11T08:26:14;2.40;95.10
16271;DHT22;8243;49.048;8.396;2023-02-11T08:28:41;2.50;93.20
16271;DHT22;8243;49.048;8.396;2023-02-11T08:31:09;2.80;91.00
16271;DHT22;8243;49.048;8.396;2023-02-11T08:33:35;2.80;90.00
16271;DHT22;8243;49.048;8.396;2023-02-11T08:36:06;2.80;88.60
16271;DHT22;8243;49.048;8.396;2023-02-11T08:38:32;3.30;87.20
16271;DHT22;8243;49.048;8.396;2023-02-11T08:40:59;3.80;81.10
16271;DHT22;8243;49.048;8.396;2023-02-11T08:43:24;5.00;72.40
16271;DHT22;8243;49.048;8.396;2023-02-11T08:45:50;6.10;64.10
16271;DHT22;8243;49.048;8.396;2023-02-11T08:48:16;6.50;58.90
16271;DHT22;8243;49.048;8.396;2023-02-11T08:50:41;5.90;58.00
16271;DHT22;8243;49.048;8.396;2023-02-11T08:53:07;5.20;59.40
16271;DHT22;8243;49.048;8.396;2023-02-11T08:55:32;4.90;61.30
16271;DHT22;8243;49.048;8.396;2023-02-11T08:57:58;4.20;60.60
16271;DHT22;8243;49.048;8.396;2023-02-11T09:00:23;4.40;61.20
16271;DHT22;8243;49.048;8.396;2023-02-11T09:02:49;4.10;61.00
16271;DHT22;8243;49.048;8.396;2023-02-11T09:05:15;4.70;61.60
16271;DHT22;8243;49.048;8.396;2023-02-11T09:07:40;4.80;59.60
16271;DHT22;8243;49.048;8.396;2023-02-11T09:10:06;5.00;58.80
16271;DHT22;8243;49.048;8.396;2023-02-11T09:12:32;6.00;55.10
16271;DHT22;8243;49.048;8.396;2023-02-11T09:14:57;6.90;50.60
16271;DHT22;8243;49.048;8.396;2023-02-11T09:17:23;7.70;45.30
16271;DHT22;8243;49.048;8.396;2023-02-11T09:19:48;7.90;40.40
16271;DHT22;8243;49.048;8.396;2023-02-11T09:22:14;7.90;38.90
16271;DHT22;8243;49.048;8.396;2023-02-11T09:24:40;7.90;36.60
16271;DHT22;8243;49.048;8.396;2023-02-11T09:27:05;8.20;35.70
16271;DHT22;8243;49.048;8.396;2023-02-11T09:29:31;8.50;33.70
16271;DHT22;8243;49.048;8.396;2023-02-11T09:31:56;8.70;31.50
16271;DHT22;8243;49.048;8.396;2023-02-11T09:34:22;8.80;31.10
16271;DHT22;8243;49.048;8.396;2023-02-11T09:36:47;9.00;29.70
16271;DHT22;8243;49.048;8.396;2023-02-11T09:39:16;9.00;28.90
16271;DHT22;8243;49.048;8.396;2023-02-11T09:44:22;9.20;27.50
16271;DHT22;8243;49.048;8.396;2023-02-11T09:49:44;9.90;24.90
16271;DHT22;8243;49.048;8.396;2023-02-11T09:52:29;10.20;23.60
16271;DHT22;8243;49.048;8.396;2023-02-11T09:54:59;10.70;21.60
16271;DHT22;8243;49.048;8.396;2023-02-11T09:57:32;9.90;22.20
16271;DHT22;8243;49.048;8.396;2023-02-11T09:59:58;9.10;23.20
16271;DHT22;8243;49.048;8.396;2023-02-11T10:07:36;7.50;27.00
16271;DHT22;8243;49.048;8.396;2023-02-11T10:10:26;7.60;27.10
16271;DHT22;8243;49.048;8.396;2023-02-11T10:16:12;8.20;26.80
16271;DHT22;8243;49.048;8.396;2023-02-11T10:24:15;9.80;21.90
16271;DHT22;8243;49.048;8.396;2023-02-11T10:26:42;9.60;22.30
16271;DHT22;8243;49.048;8.396;2023-02-11T10:29:32;9.60;21.80
16271;DHT22;8243;49.048;8.396;2023-02-11T10:32:00;9.60;21.70
16271;DHT22;8243;49.048;8.396;2023-02-11T10:34:27;9.20;22.20
16271;DHT22;8243;49.048;8.396;2023-02-11T10:36:52;9.20;22.40
16271;DHT22;8243;49.048;8.396;2023-02-11T10:39:21;9.20;22.60
16271;DHT22;8243;49.048;8.396;2023-02-11T10:41:56;9.30;22.20
16271;DHT22;8243;49.048;8.396;2023-02-11T10:44:39;9.30;22.00
16271;DHT22;8243;49.048;8.396;2023-02-11T10:47:19;9.30;21.90
16271;DHT22;8243;49.048;8.396;2023-02-11T10:49:46;9.00;22.40
16271;DHT22;8243;49.048;8.396;2023-02-11T10:52:26;8.80;22.70
16271;DHT22;8243;49.048;8.396;2023-02-11T10:55:18;8.70;23.10
16271;DHT22;8243;49.048;8.396;2023-02-11T10:57:57;8.60;22.80
16271;DHT22;8243;49.048;8.396;2023-02-11T11:02:57;8.50;22.90
16271;DHT22;8243;49.048;8.396;2023-02-11T11:05:28;8.50;22.80
16271;DHT22;8243;49.048;8.396;2023-02-11T11:08:05;8.60;22.80
16271;DHT22;8243;49.048;8.396;2023-02-11T11:10:41;8.60;22.50
16271;DHT22;8243;49.048;8.396;2023-02-11T11:13:33;8.70;22.30
16271;DHT22;8243;49.048;8.396;2023-02-11T11:16:16;8.50;22.60
16271;DHT22;8243;49.048;8.396;2023-02-11T11:18:43;8.70;22.60
16271;DHT22;8243;49.048;8.396;2023-02-11T11:21:34;8.50;22.80
16271;DHT22;8243;49.048;8.396;2023-02-11T11:24:01;8.70;22.90
16271;DHT22;8243;49.048;8.396;2023-02-11T11:26:52;8.70;22.90
16271;DHT22;8243;49.048;8.396;2023-02-11T11:32:19;8.70;22.60
16271;DHT22;8243;49.048;8.396;2023-02-11T11:34:54;8.80;22.80
16271;DHT22;8243;49.048;8.396;2023-02-11T11:37:37;8.70;22.90
16271;DHT22;8243;49.048;8.396;2023-02-11T11:40:16;8.80;23.50
16271;DHT22;8243;49.048;8.396;2023-02-11T11:45:27;9.00;22.80
16271;DHT22;8243;49.048;8.396;2023-02-11T11:50:35;9.20;23.00
16271;DHT22;8243;49.048;8.396;2023-02-11T11:55:41;9.50;22.70
16271;DHT22;8243;49.048;8.396;2023-02-11T11:58:16;9.50;22.80
16271;DHT22;8243;49.048;8.396;2023-02-11T12:06:45;10.30;20.70
16271;DHT22;8243;49.048;8.396;2023-02-11T12:09:45;10.10;20.70
16271;DHT22;8243;49.048;8.396;2023-02-11T12:12:31;10.10;20.70
16271;DHT22;8243;49.048;8.396;2023-02-11T12:15:26;10.10;21.10
16271;DHT22;8243;49.048;8.396;2023-02-11T12:28:25;10.00;21.40
16271;DHT22;8243;49.048;8.396;2023-02-11T12:31:20;10.00;21.20
16271;DHT22;8243;49.048;8.396;2023-02-11T12:39:35;10.70;19.90
16271;DHT22;8243;49.048;8.396;2023-02-11T12:42:15;10.80;19.90
16271;DHT22;8243;49.048;8.396;2023-02-11T12:55:29;10.60;21.00
16271;DHT22;8243;49.048;8.396;2023-02-11T12:58:01;10.50;20.70
16271;DHT22;8243;49.048;8.396;2023-02-11T13:05:56;10.50;21.80
16271;DHT22;8243;49.048;8.396;2023-02-11T13:08:29;10.60;21.60
16271;DHT22;8243;49.048;8.396;2023-02-11T13:11:06;10.70;21.60
16271;DHT22;8243;49.048;8.396;2023-02-11T13:13:52;10.80;21.20
16271;DHT22;8243;49.048;8.396;2023-02-11T13:16:40;11.10;20.90
16271;DHT22;8243;49.048;8.396;2023-02-11T13:19:16;11.20;20.20
16271;DHT22;8243;49.048;8.396;2023-02-11T13:24:47;11.50;20.40
16271;DHT22;8243;49.048;8.396;2023-02-11T13:35:34;11.70;19.80
16271;DHT22;8243;49.048;8.396;2023-02-11T13:38:21;11.50;19.80
16271;DHT22;8243;49.048;8.396;2023-02-11T13:41:05;11.40;20.00
16271;DHT22;8243;49.048;8.396;2023-02-11T13:43:37;11.20;20.60
16271;DHT22;8243;49.048;8.396;2023-02-11T13:46:05;11.20;20.60
16271;DHT22;8243;49.048;8.396;2023-02-11T13:48:37;11.20;20.60
16271;DHT22;8243;49.048;8.396;2023-02-11T13:51:13;11.20;20.60
16271;DHT22;8243;49.048;8.396;2023-02-11T13:53:52;11.40;20.70
16271;DHT22;8243;49.048;8.396;2023-02-11T13:56:35;11.40;20.80
16271;DHT22;8243;49.048;8.396;2023-02-11T13:59:04;11.30;20.70
16271;DHT22;8243;49.048;8.396;2023-02-11T14:04:30;11.30;20.70
16271;DHT22;8243;49.048;8.396;2023-02-11T14:07:29;11.10;21.00
16271;DHT22;8243;49.048;8.396;2023-02-11T14:23:44;11.20;21.40
16271;DHT22;8243;49.048;8.396;2023-02-11T14:28:52;11.10;21.10
16271;DHT22;8243;49.048;8.396;2023-02-11T14:34:48;10.90;22.00
16271;DHT22;8243;49.048;8.396;2023-02-11T14:37:42;10.70;22.50
16271;DHT22;8243;49.048;8.396;2023-02-11T14:40:32;10.70;22.70
16271;DHT22;8243;49.048;8.396;2023-02-11T14:43:26;10.70;22.90
16271;DHT22;8243;49.048;8.396;2023-02-11T14:45:55;10.70;23.20
16271;DHT22;8243;49.048;8.396;2023-02-11T14:48:27;10.80;23.00
16271;DHT22;8243;49.048;8.396;2023-02-11T14:51:05;10.80;23.20
16271;DHT22;8243;49.048;8.396;2023-02-11T14:53:32;10.90;22.90
16271;DHT22;8243;49.048;8.396;2023-02-11T14:55:59;11.00;22.60
16271;DHT22;8243;49.048;8.396;2023-02-11T14:58:29;11.00;22.70
16271;DHT22;8243;49.048;8.396;2023-02-11T15:01:04;10.90;22.60
16271;DHT22;8243;49.048;8.396;2023-02-11T15:03:38;10.70;23.20
16271;DHT22;8243;49.048;8.396;2023-02-11T15:06:30;10.60;23.60
16271;DHT22;8243;49.048;8.396;2023-02-11T15:09:12;10.60;24.00
16271;DHT22;8243;49.048;8.396;2023-02-11T15:11:39;10.40;24.40
16271;DHT22;8243;49.048;8.396;2023-02-11T15:14:21;10.40;24.60
16271;DHT22;8243;49.048;8.396;2023-02-11T15:16:48;10.40;24.90
16271;DHT22;8243;49.048;8.396;2023-02-11T15:19:20;10.30;25.30
16271;DHT22;8243;49.048;8.396;2023-02-11T15:21:47;10.30;25.50
16271;DHT22;8243;49.048;8.396;2023-02-11T15:24:27;10.30;25.60
16271;DHT22;8243;49.048;8.396;2023-02-11T15:27:15;10.20;25.70
16271;DHT22;8243;49.048;8.396;2023-02-11T15:29:45;10.20;26.20
16271;DHT22;8243;49.048;8.396;2023-02-11T15:32:22;10.20;26.40
16271;DHT22;8243;49.048;8.396;2023-02-11T15:34:50;10.10;26.30
16271;DHT22;8243;49.048;8.396;2023-02-11T15:37:24;10.20;26.70
16271;DHT22;8243;49.048;8.396;2023-02-11T15:39:52;10.00;27.40
16271;DHT22;8243;49.048;8.396;2023-02-11T15:42:27;9.90;28.70
16271;DHT22;8243;49.048;8.396;2023-02-11T15:47:45;9.80;29.00
16271;DHT22;8243;49.048;8.396;2023-02-11T15:50:32;9.90;29.10
16271;DHT22;8243;49.048;8.396;2023-02-11T15:53:03;9.80;29.30
16271;DHT22;8243;49.048;8.396;2023-02-11T15:55:30;9.90;29.50
16271;DHT22;8243;49.048;8.396;2023-02-11T15:57:59;9.90;29.50
16271;DHT22;8243;49.048;8.396;2023-02-11T16:00:49;9.90;29.40
16271;DHT22;8243;49.048;8.396;2023-02-11T16:03:20;9.90;29.60
16271;DHT22;8243;49.048;8.396;2023-02-11T16:05:48;9.80;29.90
16271;DHT22;8243;49.048;8.396;2023-02-11T16:08:24;9.70;30.00
16271;DHT22;8243;49.048;8.396;2023-02-11T16:11:03;9.60;30.50
16271;DHT22;8243;49.048;8.396;2023-02-11T16:13:44;9.70;31.10
16271;DHT22;8243;49.048;8.396;2023-02-11T16:16:37;9.60;30.80
16271;DHT22;8243;49.048;8.396;2023-02-11T16:19:03;9.50;30.90
16271;DHT22;8243;49.048;8.396;2023-02-11T16:21:36;9.60;31.00
16271;DHT22;8243;49.048;8.396;2023-02-11T16:24:06;9.50;30.90
16271;DHT22;8243;49.048;8.396;2023-02-11T16:26:37;9.60;31.00
16271;DHT22;8243;49.048;8.396;2023-02-11T16:31:39;9.50;31.60
16271;DHT22;8243;49.048;8.396;2023-02-11T16:34:26;9.50;31.90
16271;DHT22;8243;49.048;8.396;2023-02-11T16:36:52;9.40;32.40
16271;DHT22;8243;49.048;8.396;2023-02-11T16:39:19;9.30;32.50
16271;DHT22;8243;49.048;8.396;2023-02-11T16:41:48;9.30;32.40
16271;DHT22;8243;49.048;8.396;2023-02-11T16:44:17;9.20;32.70
16271;DHT22;8243;49.048;8.396;2023-02-11T16:46:43;9.30;32.90
16271;DHT22;8243;49.048;8.396;2023-02-11T16:51:51;9.20;34.30
16271;DHT22;8243;49.048;8.396;2023-02-11T16:54:18;9.10;35.70
16271;DHT22;8243;49.048;8.396;2023-02-11T16:56:44;9.00;37.10
16271;DHT22;8243;49.048;8.396;2023-02-11T16:59:10;9.00;37.80
16271;DHT22;8243;49.048;8.396;2023-02-11T17:01:38;8.90;38.90
16271;DHT22;8243;49.048;8.396;2023-02-11T17:04:05;8.90;39.60
16271;DHT22;8243;49.048;8.396;2023-02-11T17:06:32;8.80;40.30
16271;DHT22;8243;49.048;8.396;2023-02-11T17:08:58;8.70;41.90
16271;DHT22;8243;49.048;8.396;2023-02-11T17:11:24;8.60;42.70
16271;DHT22;8243;49.048;8.396;2023-02-11T17:13:50;8.50;43.20
16271;DHT22;8243;49.048;8.396;2023-02-11T17:16:20;8.50;43.20
16271;DHT22;8243;49.048;8.396;2023-02-11T17:18:47;8.50;44.00
16271;DHT22;8243;49.048;8.396;2023-02-11T17:21:13;8.50;44.30
16271;DHT22;8243;49.048;8.396;2023-02-11T17:23:39;8.50;44.50
16271;DHT22;8243;49.048;8.396;2023-02-11T17:26:05;8.50;44.70
16271;DHT22;8243;49.048;8.396;2023-02-11T17:28:31;8.40;45.40
16271;DHT22;8243;49.048;8.396;2023-02-11T17:30:57;8.20;47.50
16271;DHT22;8243;49.048;8.396;2023-02-11T17:33:23;8.10;48.00
16271;DHT22;8243;49.048;8.396;2023-02-11T17:35:48;8.10;47.30
16271;DHT22;8243;49.048;8.396;2023-02-11T17:38:14;8.20;47.70
16271;DHT22;8243;49.048;8.396;2023-02-11T17:40:40;8.20;47.70
16271;DHT22;8243;49.048;8.396;2023-02-11T17:43:06;8.30;47.90
16271;DHT22;8243;49.048;8.396;2023-02-11T17:45:31;8.40;47.70
16271;DHT22;8243;49.048;8.396;2023-02-11T17:47:57;8.50;46.50
16271;DHT22;8243;49.048;8.396;2023-02-11T17:50:22;8.40;47.10
16271;DHT22;8243;49.048;8.396;2023-02-11T17:52:48;8.30;47.20
16271;DHT22;8243;49.048;8.396;2023-02-11T17:55:13;8.20;47.30
16271;DHT22;8243;49.048;8.396;2023-02-11T17:57:39;8.30;47.10
16271;DHT22;8243;49.048;8.396;2023-02-11T18:00:06;8.30;47.90
16271;DHT22;8243;49.048;8.396;2023-02-11T18:02:32;8.30;48.10
16271;DHT22;8243;49.048;8.396;2023-02-11T18:04:57;8.30;48.00
16271;DHT22;8243;49.048;8.396;2023-02-11T18:07:24;8.30;48.30
16271;DHT22;8243;49.048;8.396;2023-02-11T18:09:50;8.30;48.40
16271;DHT22;8243;49.048;8.396;2023-02-11T18:12:16;8.30;48.60
16271;DHT22;8243;49.048;8.396;2023-02-11T18:14:52;8.30;49.10
16271;DHT22;8243;49.048;8.396;2023-02-11T18:17:22;8.30;49.40
16271;DHT22;8243;49.048;8.396;2023-02-11T18:19:48;8.30;49.50
16271;DHT22;8243;49.048;8.396;2023-02-11T18:22:16;8.30;49.40
16271;DHT22;8243;49.048;8.396;2023-02-11T18:24:42;8.30;50.10
16271;DHT22;8243;49.048;8.396;2023-02-11T18:27:08;8.30;50.30
16271;DHT22;8243;49.048;8.396;2023-02-11T18:29:34;8.30;50.60
16271;DHT22;8243;49.048;8.396;2023-02-11T18:32:00;8.30;51.10
16271;DHT22;8243;49.048;8.396;2023-02-11T18:34:25;8.20;50.30
16271;DHT22;8243;49.048;8.396;2023-02-11T18:36:51;8.20;49.40